createdAt,value
2022-10-16T00:01:45.903Z,14.24
2022-10-16T00:04:14.138Z,14.24
2022-10-16T00:06:42.345Z,14.22
2022-10-16T00:09:09.837Z,14.20
2022-10-16T00:11:42.151Z,14.27
2022-10-16T00:14:15.509Z,14.31
2022-10-16T00:16:43.968Z,14.28
2022-10-16T00:19:13.765Z,14.35
2022-10-16T00:21:41.954Z,14.28
2022-10-16T00:24:12.019Z,14.21
2022-10-16T00:26:41.020Z,14.29
2022-10-16T00:29:09.545Z,14.27
2022-10-16T00:31:37.640Z,14.37
2022-10-16T00:34:05.068Z,14.28
2022-10-16T00:36:33.489Z,14.26
2022-10-16T00:39:02.395Z,14.32
2022-10-16T00:41:32.089Z,14.27
2022-10-16T00:44:01.849Z,14.39
2022-10-16T00:46:39.745Z,14.35
2022-10-16T00:49:17.971Z,14.40
2022-10-16T00:51:51.211Z,14.43
2022-10-16T00:54:28.781Z,14.33
2022-10-16T00:57:00.703Z,14.28
2022-10-16T00:59:32.370Z,14.27
2022-10-16T01:02:00.833Z,14.34
2022-10-16T01:04:37.085Z,14.35
2022-10-16T01:07:25.779Z,14.35
2022-10-16T01:10:28.994Z,14.40
2022-10-16T01:13:08.378Z,14.36
2022-10-16T01:16:01.271Z,14.29
2022-10-16T01:18:35.645Z,14.39
2022-10-16T01:21:11.255Z,14.29
2022-10-16T01:23:59.930Z,14.30
2022-10-16T01:26:52.876Z,14.33
2022-10-16T01:29:40.838Z,14.35
2022-10-16T01:32:18.295Z,14.44
2022-10-16T01:35:14.795Z,14.34
2022-10-16T01:38:05.919Z,14.36
2022-10-16T01:40:37.459Z,14.30
2022-10-16T01:43:12.942Z,14.36
2022-10-16T01:45:44.186Z,14.36
2022-10-16T01:48:16.694Z,14.28
2022-10-16T01:50:48.711Z,14.23
2022-10-16T01:53:18.708Z,14.21
2022-10-16T01:55:51.343Z,14.19
2022-10-16T01:58:19.629Z,14.17
2022-10-16T02:00:49.012Z,14.16
2022-10-16T02:03:20.833Z,14.26
2022-10-16T02:05:55.601Z,14.21
2022-10-16T02:08:27.311Z,14.16
2022-10-16T02:10:57.531Z,14.14
2022-10-16T02:13:46.275Z,14.19
2022-10-16T02:16:16.407Z,14.25
2022-10-16T02:18:45.096Z,14.16
2022-10-16T02:21:39.780Z,14.08
2022-10-16T02:24:27.734Z,14.12
2022-10-16T02:27:29.270Z,14.06
2022-10-16T02:30:10.905Z,14.05
2022-10-16T02:32:43.802Z,13.97
2022-10-16T02:35:13.728Z,13.89
2022-10-16T02:37:42.350Z,14.01
2022-10-16T02:40:11.311Z,13.96
2022-10-16T02:42:40.794Z,13.96
2022-10-16T02:45:10.840Z,14.01
2022-10-16T02:47:38.780Z,13.97
2022-10-16T02:50:06.763Z,13.83
2022-10-16T02:52:34.139Z,13.83
2022-10-16T02:55:03.801Z,13.86
2022-10-16T02:57:32.900Z,13.74
2022-10-16T03:00:01.074Z,13.65
2022-10-16T03:02:28.580Z,13.66
2022-10-16T03:04:57.603Z,13.72
2022-10-16T03:07:25.398Z,13.72
2022-10-16T03:09:53.861Z,13.67
2022-10-16T03:12:22.570Z,13.68
2022-10-16T03:14:50.094Z,13.80
2022-10-16T03:17:17.973Z,13.74
2022-10-16T03:19:47.650Z,13.84
2022-10-16T03:22:14.868Z,13.82
2022-10-16T03:24:42.596Z,13.88
2022-10-16T03:27:10.736Z,13.96
2022-10-16T03:29:40.933Z,13.96
2022-10-16T03:32:08.608Z,13.95
2022-10-16T03:34:36.674Z,14.05
2022-10-16T03:37:04.448Z,13.93
2022-10-16T03:39:34.534Z,13.98
2022-10-16T03:42:02.806Z,14.02
2022-10-16T03:44:31.379Z,14.03
2022-10-16T03:46:59.145Z,13.97
2022-10-16T03:49:26.534Z,14.07
2022-10-16T03:51:53.759Z,14.09
2022-10-16T03:54:23.302Z,14.04
2022-10-16T03:56:51.071Z,13.93
2022-10-16T03:59:19.731Z,13.93
2022-10-16T04:01:47.143Z,13.93
2022-10-16T04:04:15.191Z,14.00
2022-10-16T04:06:42.540Z,13.96
2022-10-16T04:09:10.793Z,14.06
2022-10-16T04:11:38.271Z,14.03
2022-10-16T04:14:06.440Z,14.07
2022-10-16T04:16:33.685Z,14.06
2022-10-16T04:19:02.137Z,14.10
2022-10-16T04:21:29.346Z,14.18
2022-10-16T04:23:56.836Z,14.23
2022-10-16T04:26:26.891Z,14.24
2022-10-16T04:28:55.360Z,14.20
2022-10-16T04:31:23.074Z,14.20
2022-10-16T04:33:50.983Z,14.12
2022-10-16T04:36:18.344Z,14.21
2022-10-16T04:38:47.254Z,14.13
2022-10-16T04:41:18.548Z,14.17
2022-10-16T04:43:46.088Z,14.13
2022-10-16T04:46:13.543Z,14.15
2022-10-16T04:48:41.328Z,14.17
2022-10-16T04:51:08.675Z,14.19
2022-10-16T04:53:37.353Z,14.19
2022-10-16T04:56:06.345Z,14.27
2022-10-16T04:58:34.645Z,14.33
2022-10-16T05:01:02.373Z,14.38
2022-10-16T05:06:07.496Z,14.32
2022-10-16T05:08:36.138Z,14.37
2022-10-16T05:11:05.472Z,14.36
2022-10-16T05:13:32.861Z,14.41
2022-10-16T05:16:00.071Z,14.41
2022-10-16T05:18:28.951Z,14.46
2022-10-16T05:20:58.115Z,14.51
2022-10-16T05:23:27.277Z,14.53
2022-10-16T05:25:59.394Z,14.50
2022-10-16T05:28:29.926Z,14.46
2022-10-16T05:30:58.668Z,14.47
2022-10-16T05:33:28.192Z,14.51
2022-10-16T05:35:56.521Z,14.61
2022-10-16T05:38:25.726Z,14.59
2022-10-16T05:40:53.958Z,14.57
2022-10-16T05:43:22.499Z,14.59
2022-10-16T05:45:56.661Z,14.58
2022-10-16T05:48:25.285Z,14.59
2022-10-16T05:51:05.788Z,14.65
2022-10-16T05:53:36.824Z,14.67
2022-10-16T05:56:05.577Z,14.61
2022-10-16T05:58:36.836Z,14.73
2022-10-16T06:01:16.957Z,14.63
2022-10-16T06:03:45.704Z,14.69
2022-10-16T06:06:17.511Z,14.66
2022-10-16T06:08:46.937Z,14.75
2022-10-16T06:11:23.571Z,14.67
2022-10-16T06:13:57.768Z,14.62
2022-10-16T06:16:27.515Z,14.66
2022-10-16T06:19:01.503Z,14.66
2022-10-16T06:21:30.562Z,14.69
2022-10-16T06:23:58.979Z,14.82
2022-10-16T06:26:32.119Z,14.75
2022-10-16T06:29:01.102Z,14.72
2022-10-16T06:31:31.897Z,14.73
2022-10-16T06:34:00.504Z,14.75
2022-10-16T06:36:28.296Z,14.78
2022-10-16T06:38:57.607Z,14.84
2022-10-16T06:41:29.700Z,14.91
2022-10-16T06:44:08.124Z,15.01
2022-10-16T06:46:36.057Z,14.94
2022-10-16T06:49:04.467Z,14.98
2022-10-16T06:51:37.953Z,14.83
2022-10-16T06:54:10.045Z,14.80
2022-10-16T06:56:37.751Z,14.85
2022-10-16T06:59:06.076Z,14.85
2022-10-16T07:01:34.837Z,14.86
2022-10-16T07:04:03.806Z,14.93
2022-10-16T07:06:34.063Z,15.02
2022-10-16T07:09:06.848Z,15.02
2022-10-16T07:11:35.667Z,15.09
2022-10-16T07:14:03.467Z,15.07
2022-10-16T07:16:35.266Z,15.20
2022-10-16T07:19:03.951Z,15.15
2022-10-16T07:21:37.132Z,15.24
2022-10-16T07:24:12.111Z,15.25
2022-10-16T07:26:40.743Z,15.27
2022-10-16T07:29:15.959Z,15.29
2022-10-16T07:31:45.432Z,15.34
2022-10-16T07:34:14.821Z,15.36
2022-10-16T07:39:14.743Z,15.37
2022-10-16T07:41:42.146Z,15.46
2022-10-16T07:44:11.193Z,15.65
2022-10-16T07:46:40.652Z,15.79
2022-10-16T07:49:09.912Z,15.94
2022-10-16T07:51:39.357Z,16.02
2022-10-16T07:54:10.503Z,16.13
2022-10-16T07:56:39.941Z,16.27
2022-10-16T07:59:11.832Z,16.29
2022-10-16T08:01:39.720Z,16.35
2022-10-16T08:04:07.540Z,16.59
2022-10-16T08:06:38.064Z,17.37
2022-10-16T08:09:06.905Z,18.54
2022-10-16T08:11:34.904Z,19.11
2022-10-16T08:14:03.406Z,19.55
2022-10-16T08:16:31.604Z,19.96
2022-10-16T08:18:59.111Z,20.35
2022-10-16T08:21:26.505Z,20.40
2022-10-16T08:23:58.079Z,20.17
2022-10-16T08:26:28.343Z,19.89
2022-10-16T08:28:56.742Z,19.61
2022-10-16T08:31:25.791Z,19.17
2022-10-16T08:33:53.772Z,18.52
2022-10-16T08:36:21.839Z,18.18
2022-10-16T08:38:50.814Z,17.96
2022-10-16T08:41:25.344Z,18.06
2022-10-16T08:44:38.450Z,18.26
2022-10-16T08:47:08.561Z,18.17
2022-10-16T08:49:37.034Z,18.12
2022-10-16T08:52:07.303Z,18.03
2022-10-16T08:54:43.118Z,18.07
2022-10-16T08:57:17.563Z,17.97
2022-10-16T09:00:20.568Z,17.97
2022-10-16T09:03:05.395Z,18.00
2022-10-16T09:05:55.088Z,17.98
2022-10-16T09:09:01.518Z,17.96
2022-10-16T09:11:39.599Z,17.93
2022-10-16T09:14:27.875Z,17.94
2022-10-16T09:17:06.538Z,17.95
2022-10-16T09:19:46.533Z,17.80
2022-10-16T09:22:17.532Z,17.71
2022-10-16T09:24:45.993Z,17.76
2022-10-16T09:27:16.329Z,17.73
2022-10-16T09:29:44.156Z,17.66
2022-10-16T09:32:17.073Z,17.64
2022-10-16T09:35:04.739Z,17.59
2022-10-16T09:37:33.192Z,17.63
2022-10-16T09:40:05.146Z,17.70
2022-10-16T09:42:39.138Z,17.66
2022-10-16T09:45:07.788Z,17.62
2022-10-16T09:47:40.793Z,17.59
2022-10-16T09:50:27.477Z,17.55
2022-10-16T09:53:15.787Z,17.58
2022-10-16T09:55:54.976Z,17.70
2022-10-16T09:58:24.899Z,17.84
2022-10-16T10:00:54.907Z,17.82
2022-10-16T10:04:02.504Z,17.91
2022-10-16T10:06:39.041Z,17.94
2022-10-16T10:09:15.461Z,17.94
2022-10-16T10:11:55.605Z,18.00
2022-10-16T10:14:42.833Z,18.01
2022-10-16T10:17:10.091Z,17.96
2022-10-16T10:19:52.445Z,17.87
2022-10-16T10:22:31.560Z,17.78
2022-10-16T10:25:23.838Z,17.63
2022-10-16T10:28:12.270Z,17.53
2022-10-16T10:31:02.049Z,17.42
2022-10-16T10:33:54.296Z,17.36
2022-10-16T10:36:31.987Z,17.11
2022-10-16T10:42:17.079Z,16.77
2022-10-16T10:45:04.737Z,16.65
2022-10-16T10:48:01.302Z,16.54
2022-10-16T10:50:49.451Z,16.29
2022-10-16T10:53:40.715Z,16.15
2022-10-16T10:56:26.706Z,15.90
2022-10-16T10:59:23.945Z,15.83
2022-10-16T11:02:01.316Z,15.70
2022-10-16T11:04:36.029Z,15.61
2022-10-16T11:07:10.665Z,15.49
2022-10-16T11:09:46.019Z,15.42
2022-10-16T11:12:21.291Z,15.40
2022-10-16T11:15:13.587Z,15.40
2022-10-16T11:17:47.068Z,15.39
2022-10-16T11:20:26.817Z,15.38
2022-10-16T11:23:01.097Z,15.37
2022-10-16T11:25:34.011Z,15.35
2022-10-16T11:28:33.707Z,15.36
2022-10-16T11:31:39.518Z,15.37
2022-10-16T11:34:18.152Z,15.40
2022-10-16T11:36:52.817Z,15.42
2022-10-16T11:39:28.388Z,15.43
2022-10-16T11:42:06.180Z,15.39
2022-10-16T11:44:45.526Z,15.48
2022-10-16T11:50:37.255Z,15.61
2022-10-16T11:53:45.965Z,15.67
2022-10-16T11:56:19.966Z,15.58
2022-10-16T11:58:57.516Z,15.50
2022-10-16T12:02:16.718Z,15.58
2022-10-16T12:04:51.381Z,15.54
2022-10-16T12:07:29.014Z,15.48
2022-10-16T12:10:03.030Z,15.51
2022-10-16T12:12:37.319Z,15.55
2022-10-16T12:15:40.666Z,15.65
2022-10-16T12:18:25.969Z,15.68
2022-10-16T12:21:06.928Z,15.72
2022-10-16T12:23:50.299Z,15.76
2022-10-16T12:26:29.716Z,15.86
2022-10-16T12:29:14.382Z,15.95
2022-10-16T12:31:57.425Z,16.02
2022-10-16T12:34:31.299Z,16.06
2022-10-16T12:37:20.643Z,15.97
2022-10-16T12:39:50.200Z,16.00
2022-10-16T12:42:36.258Z,16.09
2022-10-16T12:45:26.143Z,16.24
2022-10-16T12:47:56.985Z,16.32
2022-10-16T12:50:34.423Z,16.34
2022-10-16T12:53:18.420Z,16.42
2022-10-16T12:56:13.858Z,16.48
2022-10-16T12:59:18.607Z,16.54
2022-10-16T13:02:24.215Z,16.58
2022-10-16T13:05:14.619Z,16.65
2022-10-16T13:07:48.156Z,16.73
2022-10-16T13:10:43.988Z,16.92
2022-10-16T13:13:28.716Z,17.07
2022-10-16T13:15:59.560Z,17.21
2022-10-16T13:19:05.982Z,17.34
2022-10-16T13:21:40.660Z,17.47
2022-10-16T13:24:26.615Z,17.58
2022-10-16T13:27:03.749Z,17.65
2022-10-16T13:29:35.717Z,17.76
2022-10-16T13:32:10.826Z,17.79
2022-10-16T13:34:47.187Z,17.82
2022-10-16T13:37:23.320Z,17.88
2022-10-16T13:39:57.190Z,17.94
2022-10-16T13:42:30.572Z,17.99
2022-10-16T13:44:58.026Z,18.13
2022-10-16T13:47:28.381Z,18.25
2022-10-16T13:50:04.669Z,18.38
2022-10-16T13:52:33.318Z,18.40
2022-10-16T13:55:02.386Z,18.51
2022-10-16T13:57:30.990Z,18.61
2022-10-16T13:59:58.444Z,18.73
2022-10-16T14:02:33.576Z,18.86
2022-10-16T14:05:11.465Z,19.06
2022-10-16T14:07:39.523Z,19.16
2022-10-16T14:10:19.591Z,19.32
2022-10-16T14:12:55.922Z,19.40
2022-10-16T14:15:25.211Z,19.51
2022-10-16T14:17:54.684Z,19.52
2022-10-16T14:20:27.836Z,19.51
2022-10-16T14:23:21.862Z,19.43
2022-10-16T14:25:51.978Z,19.41
2022-10-16T14:28:22.666Z,19.43
2022-10-16T14:30:57.489Z,19.44
2022-10-16T14:33:34.563Z,19.45
2022-10-16T14:36:07.281Z,19.53
2022-10-16T14:38:36.923Z,19.55
2022-10-16T14:41:05.092Z,19.55
2022-10-16T14:43:49.982Z,19.57
2022-10-16T14:49:16.879Z,19.70
2022-10-16T14:51:46.970Z,19.71
2022-10-16T14:54:16.259Z,19.71
2022-10-16T14:56:47.075Z,19.75
2022-10-16T14:59:39.788Z,19.83
2022-10-16T15:02:16.827Z,19.89
2022-10-16T15:04:44.398Z,19.92
2022-10-16T15:07:11.746Z,19.95
2022-10-16T15:09:39.229Z,19.96
2022-10-16T15:12:06.636Z,19.96
2022-10-16T15:14:35.590Z,19.93
2022-10-16T15:17:05.049Z,19.88
2022-10-16T15:19:32.635Z,19.88
2022-10-16T15:21:59.999Z,19.87
2022-10-16T15:24:29.292Z,19.80
2022-10-16T15:26:56.623Z,19.76
2022-10-16T15:29:24.312Z,19.70
2022-10-16T15:31:52.695Z,19.70
2022-10-16T15:34:20.798Z,19.69
2022-10-16T15:36:48.350Z,19.69
2022-10-16T15:39:19.398Z,19.66
2022-10-16T15:41:52.136Z,19.69
2022-10-16T15:44:22.444Z,19.67
2022-10-16T15:46:50.000Z,19.66
2022-10-16T15:49:18.180Z,19.74
2022-10-16T15:51:47.892Z,19.76
2022-10-16T15:54:15.582Z,19.83
2022-10-16T15:56:43.090Z,19.85
2022-10-16T15:59:12.055Z,19.95
2022-10-16T16:01:39.605Z,19.99
2022-10-16T16:04:15.262Z,20.04
2022-10-16T16:06:57.710Z,20.07
2022-10-16T16:09:25.820Z,20.09
2022-10-16T16:11:53.818Z,20.16
2022-10-16T16:14:22.019Z,20.15
2022-10-16T16:16:52.153Z,20.14
2022-10-16T16:19:24.378Z,20.14
2022-10-16T16:21:53.609Z,20.08
2022-10-16T16:24:21.235Z,20.02
2022-10-16T16:26:49.016Z,19.97
2022-10-16T16:29:17.319Z,19.93
2022-10-16T16:31:48.075Z,19.94
2022-10-16T16:34:18.249Z,19.94
2022-10-16T16:36:46.189Z,19.87
2022-10-16T16:39:13.686Z,19.85
2022-10-16T16:41:41.122Z,19.87
2022-10-16T16:44:11.653Z,19.87
2022-10-16T16:46:40.588Z,19.88
2022-10-16T16:49:14.418Z,19.86
2022-10-16T16:51:42.212Z,19.92
2022-10-16T16:54:11.652Z,19.80
2022-10-16T16:56:39.092Z,19.81
2022-10-16T16:59:06.927Z,19.75
2022-10-16T17:01:34.327Z,19.67
2022-10-16T17:04:03.782Z,19.66
2022-10-16T17:06:31.325Z,19.62
2022-10-16T17:09:01.601Z,19.54
2022-10-16T17:11:29.536Z,19.51
2022-10-16T17:13:58.899Z,19.45
2022-10-16T17:16:33.646Z,19.34
2022-10-16T17:19:07.049Z,19.34
2022-10-16T17:21:37.957Z,19.33
2022-10-16T17:24:06.815Z,19.32
2022-10-16T17:26:38.376Z,19.20
2022-10-16T17:29:06.369Z,19.19
2022-10-16T17:31:39.440Z,19.21
2022-10-16T17:34:09.851Z,19.07
2022-10-16T17:36:38.107Z,19.03
2022-10-16T17:39:08.379Z,18.96
2022-10-16T17:41:36.868Z,18.93
2022-10-16T17:44:06.706Z,18.91
2022-10-16T17:46:38.303Z,18.92
2022-10-16T17:49:09.913Z,18.86
2022-10-16T17:51:37.605Z,18.88
2022-10-16T17:54:07.031Z,18.86
2022-10-16T17:56:34.753Z,18.85
2022-10-16T17:59:04.249Z,18.83
2022-10-16T18:01:38.207Z,18.87
2022-10-16T18:04:09.743Z,18.84
2022-10-16T18:06:38.019Z,18.83
2022-10-16T18:09:09.675Z,18.74
2022-10-16T18:11:38.186Z,18.66
2022-10-16T18:14:06.409Z,18.59
2022-10-16T18:16:37.094Z,18.55
2022-10-16T18:19:06.454Z,18.52
2022-10-16T18:21:34.495Z,18.46
2022-10-16T18:24:07.837Z,18.48
2022-10-16T18:26:35.282Z,18.35
2022-10-16T18:29:06.126Z,18.42
2022-10-16T18:31:35.049Z,18.34
2022-10-16T18:34:03.647Z,18.35
2022-10-16T18:36:33.750Z,18.29
2022-10-16T18:39:09.428Z,18.22
2022-10-16T18:41:42.304Z,18.23
2022-10-16T18:44:11.842Z,18.21
2022-10-16T18:46:40.532Z,18.26
2022-10-16T18:49:08.888Z,18.27
2022-10-16T18:51:41.487Z,18.25
2022-10-16T18:54:12.948Z,18.20
2022-10-16T18:56:43.266Z,18.13
2022-10-16T18:59:11.014Z,18.13
2022-10-16T19:01:40.233Z,18.11
2022-10-16T19:04:11.363Z,18.14
2022-10-16T19:06:43.257Z,18.17
2022-10-16T19:09:11.786Z,18.14
2022-10-16T19:11:41.912Z,18.09
2022-10-16T19:14:11.093Z,18.11
2022-10-16T19:16:38.988Z,18.17
2022-10-16T19:19:09.668Z,18.09
2022-10-16T19:21:42.451Z,18.00
2022-10-16T19:24:14.365Z,17.97
2022-10-16T19:26:42.447Z,17.99
2022-10-16T19:29:10.737Z,17.93
2022-10-16T19:31:39.132Z,17.86
2022-10-16T19:34:07.844Z,17.92
2022-10-16T19:36:38.726Z,17.90
2022-10-16T19:39:13.372Z,17.87
2022-10-16T19:41:41.789Z,17.80
2022-10-16T19:44:12.429Z,17.81
2022-10-16T19:46:41.520Z,17.78
2022-10-16T19:49:12.773Z,17.82
2022-10-16T19:51:41.772Z,17.72
2022-10-16T19:54:13.159Z,17.73
2022-10-16T19:56:41.989Z,17.77
2022-10-16T19:59:12.889Z,17.66
2022-10-16T20:01:40.927Z,17.75
2022-10-16T20:04:10.719Z,17.75
2022-10-16T20:06:39.700Z,17.78
2022-10-16T20:09:07.063Z,17.73
2022-10-16T20:11:37.780Z,17.73
2022-10-16T20:14:05.780Z,17.70
2022-10-16T20:16:33.321Z,17.74
2022-10-16T20:19:01.491Z,17.64
2022-10-16T20:21:33.044Z,17.66
2022-10-16T20:24:04.783Z,17.62
2022-10-16T20:26:32.540Z,17.66
2022-10-16T20:28:59.974Z,17.63
2022-10-16T20:31:29.703Z,17.55
2022-10-16T20:34:00.178Z,17.52
2022-10-16T20:36:31.670Z,17.51
2022-10-16T20:38:59.853Z,17.50
2022-10-16T20:41:27.440Z,17.59
2022-10-16T20:43:57.105Z,17.54
2022-10-16T20:46:27.419Z,17.49
2022-10-16T20:49:06.094Z,17.44
2022-10-16T20:51:39.022Z,17.40
2022-10-16T20:54:07.888Z,17.51
2022-10-16T20:56:37.760Z,17.50
2022-10-16T20:59:07.106Z,17.51
2022-10-16T21:01:36.550Z,17.38
2022-10-16T21:04:06.377Z,17.37
2022-10-16T21:06:38.424Z,17.37
2022-10-16T21:09:08.504Z,17.45
2022-10-16T21:11:37.102Z,17.41
2022-10-16T21:14:07.423Z,17.43
2022-10-16T21:16:35.054Z,17.36
2022-10-16T21:19:03.771Z,17.37
2022-10-16T21:21:34.437Z,17.30
2022-10-16T21:24:05.590Z,17.22
2022-10-16T21:26:33.573Z,17.25
2022-10-16T21:29:04.604Z,17.18
2022-10-16T21:31:33.506Z,17.19
2022-10-16T21:34:01.369Z,17.08
2022-10-16T21:36:37.603Z,17.07
2022-10-16T21:39:10.079Z,17.04
2022-10-16T21:41:38.069Z,16.96
2022-10-16T21:44:06.288Z,16.93
2022-10-16T21:46:35.515Z,16.96
2022-10-16T21:49:09.452Z,16.95
2022-10-16T21:51:41.523Z,17.02
2022-10-16T21:54:13.872Z,16.96
2022-10-16T21:56:42.083Z,16.92
2022-10-16T21:59:12.186Z,16.86
2022-10-16T22:01:41.627Z,16.87
2022-10-16T22:04:14.731Z,16.80
2022-10-16T22:06:44.680Z,16.68
2022-10-16T22:09:14.380Z,16.69
2022-10-16T22:11:44.081Z,16.75
2022-10-16T22:14:19.561Z,16.73
2022-10-16T22:16:49.815Z,16.76
2022-10-16T22:19:19.427Z,16.68
2022-10-16T22:21:48.901Z,16.70
2022-10-16T22:24:16.504Z,16.66
2022-10-16T22:26:45.031Z,16.69
2022-10-16T22:29:15.516Z,16.64
2022-10-16T22:31:44.578Z,16.55
2022-10-16T22:34:15.184Z,16.61
2022-10-16T22:36:42.692Z,16.58
2022-10-16T22:39:10.861Z,16.58
2022-10-16T22:41:38.336Z,16.61
2022-10-16T22:44:05.769Z,16.49
2022-10-16T22:46:34.880Z,16.49
2022-10-16T22:49:02.267Z,16.47
2022-10-16T22:51:30.498Z,16.40
2022-10-16T22:53:59.539Z,16.42
2022-10-16T22:56:28.021Z,16.40
2022-10-16T22:58:55.594Z,16.35
2022-10-16T23:01:29.661Z,16.32
2022-10-16T23:03:58.130Z,16.34
2022-10-16T23:06:25.607Z,16.33
2022-10-16T23:08:57.404Z,16.39
2022-10-16T23:11:28.047Z,16.33
2022-10-16T23:13:57.019Z,16.43
2022-10-16T23:16:25.485Z,16.37
2022-10-16T23:18:53.159Z,16.37
2022-10-16T23:21:25.280Z,16.39
2022-10-16T23:23:54.405Z,16.29
2022-10-16T23:26:25.307Z,16.26
2022-10-16T23:28:58.107Z,16.27
2022-10-16T23:31:26.983Z,16.24
2022-10-16T23:33:56.637Z,16.20
2022-10-16T23:36:26.359Z,16.18
2022-10-16T23:38:54.459Z,16.09
2022-10-16T23:41:22.289Z,16.18
2022-10-16T23:43:51.515Z,16.12
2022-10-16T23:46:20.229Z,16.07
2022-10-16T23:48:47.716Z,16.10
2022-10-16T23:51:15.991Z,16.08
2022-10-16T23:53:43.843Z,16.12
2022-10-16T23:56:13.319Z,16.19
2022-10-16T23:58:41.661Z,16.13
